createdAt,value
2019-04-01T16:56:58.347Z,12.40
2019-04-01T16:59:28.036Z,13.20
2019-04-01T17:01:57.843Z,16.30
2019-04-01T17:04:27.064Z,20.00
2019-04-01T17:06:57.593Z,21.90
2019-04-01T17:09:26.357Z,23.20
2019-04-01T17:11:55.070Z,23.80
2019-04-01T17:14:24.445Z,24.40
2019-04-01T17:16:53.919Z,25.50
2019-04-01T17:19:23.878Z,26.10
2019-04-01T17:21:52.561Z,26.50
2019-04-01T17:24:21.208Z,26.60
2019-04-01T17:27:04.935Z,26.70
2019-04-01T17:29:33.875Z,27.50
2019-04-01T17:32:02.540Z,27.70
2019-04-01T17:34:32.215Z,28.20
2019-04-01T17:37:01.342Z,29.50
2019-04-01T17:39:30.422Z,29.70
2019-04-01T17:41:59.159Z,30.10
2019-04-01T17:44:29.037Z,31.10
2019-04-01T17:46:57.533Z,31.20
2019-04-01T17:49:26.795Z,31.60
2019-04-01T17:51:57.810Z,32.00
2019-04-01T17:54:26.911Z,32.10
2019-04-01T17:56:55.506Z,32.20
2019-04-01T17:59:24.308Z,31.70
2019-04-01T18:01:56.809Z,30.70
2019-04-01T18:04:43.245Z,30.50
2019-04-01T18:07:13.152Z,29.20
2019-04-01T18:09:41.858Z,26.70
2019-04-01T18:12:10.584Z,30.50
2019-04-01T18:14:39.762Z,31.00
2019-04-01T18:17:11.997Z,31.50
2019-04-01T18:19:42.098Z,32.10
2019-04-01T18:22:10.687Z,31.90
2019-04-01T18:24:40.375Z,33.20
2019-04-01T18:27:12.918Z,33.70
2019-04-01T18:29:41.585Z,34.40
2019-04-01T18:32:11.060Z,36.10
2019-04-01T18:34:39.901Z,36.00
2019-04-01T18:37:11.075Z,35.90
2019-04-01T18:39:48.037Z,36.60
2019-04-01T18:42:11.871Z,36.70
2019-04-01T18:44:58.789Z,36.60
2019-04-01T18:47:27.945Z,36.10
2019-04-01T18:49:56.675Z,35.70
2019-04-01T18:52:27.633Z,36.30
2019-04-01T18:54:56.244Z,36.40
2019-04-01T18:57:27.182Z,36.40
2019-04-01T18:59:57.643Z,38.70
2019-04-01T19:02:28.126Z,38.50
2019-04-01T19:05:15.133Z,39.40
2019-04-01T19:07:44.266Z,39.60
2019-04-01T19:10:13.629Z,39.80
2019-04-01T19:12:42.763Z,40.10
2019-04-01T19:15:13.937Z,40.10
2019-04-01T19:17:44.954Z,39.70
2019-04-01T19:20:16.036Z,39.60
2019-04-01T19:23:02.761Z,40.00
2019-04-01T19:25:31.903Z,39.90
2019-04-01T19:28:19.512Z,40.40
2019-04-01T19:30:49.125Z,39.40
2019-04-01T19:33:18.201Z,38.20
2019-04-01T19:35:47.059Z,38.30
2019-04-01T19:38:15.958Z,40.10
2019-04-01T19:40:45.248Z,40.70
2019-04-01T19:43:17.110Z,41.80
2019-04-01T19:45:50.645Z,42.90
2019-04-01T19:48:20.986Z,42.80
2019-04-01T19:50:50.104Z,43.40
2019-04-01T19:53:18.926Z,42.90
2019-04-01T19:55:48.003Z,42.30
2019-04-01T19:58:16.744Z,43.20
2019-04-01T20:00:45.870Z,45.90
2019-04-01T20:03:15.282Z,45.90
2019-04-01T20:05:46.245Z,45.20
2019-04-01T20:08:16.149Z,46.10
2019-04-01T20:10:46.114Z,46.50
2019-04-01T20:13:15.141Z,46.50
2019-04-01T20:15:44.105Z,48.90
2019-04-01T20:18:13.248Z,49.70
2019-04-01T20:20:42.104Z,49.20
2019-04-01T20:23:11.102Z,48.20
2019-04-01T20:25:39.987Z,48.20
2019-04-01T20:28:10.065Z,47.20
2019-04-01T20:30:42.478Z,47.50
2019-04-01T20:33:17.501Z,49.00
2019-04-01T20:35:42.224Z,48.90
2019-04-01T20:38:11.961Z,50.10
2019-04-01T20:40:42.842Z,49.90
2019-04-01T20:43:11.630Z,49.50
2019-04-01T20:45:43.127Z,49.60
2019-04-01T20:48:13.343Z,47.30
2019-04-01T20:50:42.750Z,45.20
2019-04-01T20:53:12.750Z,44.40
2019-04-01T20:55:48.171Z,45.20
2019-04-01T20:58:12.182Z,46.10
2019-04-01T21:00:41.606Z,47.00
2019-04-01T21:03:10.856Z,48.90
2019-04-01T21:05:40.741Z,49.20
2019-04-01T21:08:09.531Z,51.10
2019-04-01T21:10:38.500Z,53.90
2019-04-01T21:13:13.565Z,53.20
2019-04-01T21:15:43.357Z,54.50
2019-04-01T21:18:13.639Z,55.00
2019-04-01T21:20:52.535Z,56.70
2019-04-01T21:23:22.860Z,56.60
2019-04-01T21:25:53.520Z,56.80
2019-04-01T21:28:28.738Z,57.50
2019-04-01T21:30:59.726Z,57.90
2019-04-01T21:33:28.963Z,57.20
2019-04-01T21:35:57.935Z,57.70
2019-04-01T21:38:26.765Z,58.70
2019-04-01T21:40:57.175Z,58.70
2019-04-01T21:43:26.415Z,58.00
2019-04-01T21:45:55.274Z,58.00
2019-04-01T21:48:24.635Z,58.50
2019-04-01T21:50:55.225Z,56.00
2019-04-01T21:53:24.509Z,54.70
2019-04-01T21:55:54.180Z,52.90
2019-04-01T21:58:25.215Z,51.00
2019-04-01T22:00:55.485Z,51.80
2019-04-01T22:03:26.390Z,53.10
2019-04-01T22:05:55.102Z,53.70
2019-04-01T22:08:25.592Z,54.40
2019-04-01T22:10:54.185Z,54.40
2019-04-01T22:13:23.465Z,55.00
2019-04-01T22:15:52.029Z,55.20
2019-04-01T22:18:20.750Z,55.70
2019-04-01T22:20:49.244Z,55.80
2019-04-01T22:23:18.478Z,56.20
2019-04-01T22:25:47.055Z,55.90
2019-04-01T22:28:22.612Z,55.90
2019-04-01T22:30:51.250Z,55.30
2019-04-01T22:33:20.100Z,55.20
2019-04-01T22:35:48.597Z,55.80
2019-04-01T22:38:24.990Z,55.20
2019-04-01T22:40:47.574Z,55.90
2019-04-01T22:43:16.587Z,55.80
2019-04-01T22:45:45.515Z,55.30
2019-04-01T22:48:14.210Z,55.10
2019-04-01T22:50:42.883Z,54.90
2019-04-01T22:53:11.857Z,55.00
2019-04-01T22:55:40.368Z,56.20
2019-04-01T22:58:09.182Z,55.80
2019-04-01T23:00:37.724Z,56.20
2019-04-01T23:03:06.722Z,56.80
2019-04-01T23:05:35.279Z,57.40
2019-04-01T23:08:06.247Z,58.10
2019-04-01T23:10:34.904Z,58.60
2019-04-01T23:13:03.470Z,58.50
2019-04-01T23:15:31.988Z,58.90
2019-04-01T23:18:01.007Z,59.00
2019-04-01T23:20:29.499Z,59.10
2019-04-01T23:22:58.410Z,58.70
2019-04-01T23:25:27.881Z,57.90
2019-04-01T23:27:56.353Z,57.40
2019-04-01T23:30:24.917Z,57.30
2019-04-01T23:32:53.794Z,57.60
2019-04-01T23:35:22.226Z,57.10
2019-04-01T23:37:50.762Z,57.80
2019-04-01T23:40:19.246Z,57.20
2019-04-01T23:42:47.715Z,57.40
2019-04-01T23:45:16.283Z,58.00
2019-04-01T23:47:45.409Z,58.50
2019-04-01T23:50:14.183Z,59.40
2019-04-01T23:52:42.754Z,60.50
2019-04-01T23:55:11.271Z,61.20
2019-04-01T23:57:39.688Z,62.10
